sensor_id;sensor_type;location;lat;lon;timestamp;pressure;altitude;pressure_sealevel;temperature;humidity
60015;BME280;45867;52.480;6.056;2023-12-04T00:01:17;100772.16;;;-0.79;100.00
60015;BME280;45867;52.480;6.056;2023-12-04T00:03:46;100775.28;;;-0.62;100.00
60015;BME280;45867;52.480;6.056;2023-12-04T00:06:28;100807.97;;;-0.47;100.00
60015;BME280;45867;52.480;6.056;2023-12-04T00:08:55;100800.97;;;-0.46;100.00
60015;BME280;45867;52.480;6.056;2023-12-04T00:11:25;100801.97;;;-0.47;100.00
60015;BME280;45867;52.480;6.056;2023-12-04T00:13:53;100799.56;;;-0.49;100.00
60015;BME280;45867;52.480;6.056;2023-12-04T00:16:19;100804.31;;;-0.59;100.00
60015;BME280;45867;52.480;6.056;2023-12-04T00:18:46;100795.53;;;-0.51;100.00
60015;BME280;45867;52.480;6.056;2023-12-04T00:21:13;100804.78;;;-0.49;100.00
60015;BME280;45867;52.480;6.056;2023-12-04T00:23:39;100810.38;;;-0.52;100.00
60015;BME280;45867;52.480;6.056;2023-12-04T00:26:12;100783.72;;;-0.54;100.00
60015;BME280;45867;52.480;6.056;2023-12-04T00:28:38;100774.28;;;-0.61;100.00
60015;BME280;45867;52.480;6.056;2023-12-04T00:31:05;100811.81;;;-0.42;100.00
60015;BME280;45867;52.480;6.056;2023-12-04T00:33:34;100812.41;;;-0.40;100.00
60015;BME280;45867;52.480;6.056;2023-12-04T00:36:07;100793.91;;;-0.52;100.00
60015;BME280;45867;52.480;6.056;2023-12-04T00:38:33;100769.47;;;-0.64;100.00
60015;BME280;45867;52.480;6.056;2023-12-04T00:41:00;100805.56;;;-0.48;100.00
60015;BME280;45867;52.480;6.056;2023-12-04T00:43:41;100784.06;;;-0.63;100.00
60015;BME280;45867;52.480;6.056;2023-12-04T00:46:07;100793.06;;;-0.66;100.00
60015;BME280;45867;52.480;6.056;2023-12-04T00:48:48;100789.09;;;-0.55;100.00
60015;BME280;45867;52.480;6.056;2023-12-04T00:51:14;100795.72;;;-0.59;100.00
60015;BME280;45867;52.480;6.056;2023-12-04T00:53:41;100798.78;;;-0.49;100.00
60015;BME280;45867;52.480;6.056;2023-12-04T00:56:10;100822.22;;;-0.42;100.00
60015;BME280;45867;52.480;6.056;2023-12-04T00:58:39;100829.00;;;-0.48;100.00
60015;BME280;45867;52.480;6.056;2023-12-04T01:01:15;100798.53;;;-0.54;100.00
60015;BME280;45867;52.480;6.056;2023-12-04T01:03:44;100800.13;;;-0.53;100.00
60015;BME280;45867;52.480;6.056;2023-12-04T01:06:20;100821.59;;;-0.45;100.00
60015;BME280;45867;52.480;6.056;2023-12-04T01:08:46;100825.22;;;-0.39;100.00
60015;BME280;45867;52.480;6.056;2023-12-04T01:11:18;100820.97;;;-0.47;100.00
60015;BME280;45867;52.480;6.056;2023-12-04T01:13:52;100790.63;;;-0.74;100.00
60015;BME280;45867;52.480;6.056;2023-12-04T01:16:22;100819.31;;;-0.61;100.00
60015;BME280;45867;52.480;6.056;2023-12-04T01:18:57;100818.97;;;-0.51;100.00
60015;BME280;45867;52.480;6.056;2023-12-04T01:21:28;100836.41;;;-0.52;100.00
60015;BME280;45867;52.480;6.056;2023-12-04T01:23:57;100831.75;;;-0.56;100.00
60015;BME280;45867;52.480;6.056;2023-12-04T01:26:24;100824.72;;;-0.62;100.00
60015;BME280;45867;52.480;6.056;2023-12-04T01:28:50;100818.13;;;-0.58;100.00
60015;BME280;45867;52.480;6.056;2023-12-04T01:31:17;100836.41;;;-0.52;100.00
60015;BME280;45867;52.480;6.056;2023-12-04T01:33:53;100849.97;;;-0.56;100.00
60015;BME280;45867;52.480;6.056;2023-12-04T01:36:20;100821.91;;;-0.68;100.00
60015;BME280;45867;52.480;6.056;2023-12-04T01:38:52;100848.56;;;-0.59;100.00
60015;BME280;45867;52.480;6.056;2023-12-04T01:41:32;100800.28;;;-0.68;100.00
60015;BME280;45867;52.480;6.056;2023-12-04T01:44:00;100827.34;;;-0.56;100.00
60015;BME280;45867;52.480;6.056;2023-12-04T01:46:30;100829.78;;;-0.48;100.00
60015;BME280;45867;52.480;6.056;2023-12-04T01:48:59;100823.16;;;-0.57;100.00
60015;BME280;45867;52.480;6.056;2023-12-04T01:51:29;100807.06;;;-0.74;100.00
60015;BME280;45867;52.480;6.056;2023-12-04T01:54:00;100841.41;;;-0.50;100.00
60015;BME280;45867;52.480;6.056;2023-12-04T01:56:36;100838.16;;;-0.59;100.00
60015;BME280;45867;52.480;6.056;2023-12-04T01:59:03;100834.91;;;-0.68;100.00
60015;BME280;45867;52.480;6.056;2023-12-04T02:01:34;100862.00;;;-0.55;100.00
60015;BME280;45867;52.480;6.056;2023-12-04T02:04:05;100828.84;;;-0.75;100.00
60015;BME280;45867;52.480;6.056;2023-12-04T02:06:32;100857.31;;;-0.67;100.00
60015;BME280;45867;52.480;6.056;2023-12-04T02:09:01;100863.78;;;-0.56;100.00
60015;BME280;45867;52.480;6.056;2023-12-04T02:11:28;100857.13;;;-0.65;100.00
60015;BME280;45867;52.480;6.056;2023-12-04T02:14:02;100859.00;;;-0.52;100.00
60015;BME280;45867;52.480;6.056;2023-12-04T02:16:35;100861.75;;;-0.60;100.00
60015;BME280;45867;52.480;6.056;2023-12-04T02:19:13;100860.38;;;-0.56;100.00
60015;BME280;45867;52.480;6.056;2023-12-04T02:21:40;100842.50;;;-0.66;100.00
60015;BME280;45867;52.480;6.056;2023-12-04T02:24:07;100856.34;;;-0.65;100.00
60015;BME280;45867;52.480;6.056;2023-12-04T02:26:51;100854.53;;;-0.65;100.00
60015;BME280;45867;52.480;6.056;2023-12-04T02:29:39;100827.16;;;-0.89;100.00
60015;BME280;45867;52.480;6.056;2023-12-04T02:32:14;100829.22;;;-0.78;100.00
60015;BME280;45867;52.480;6.056;2023-12-04T02:34:51;100843.84;;;-0.77;100.00
60015;BME280;45867;52.480;6.056;2023-12-04T02:37:20;100857.94;;;-0.64;100.00
60015;BME280;45867;52.480;6.056;2023-12-04T02:39:50;100868.00;;;-0.55;100.00
60015;BME280;45867;52.480;6.056;2023-12-04T02:42:20;100859.97;;;-0.60;100.00
60015;BME280;45867;52.480;6.056;2023-12-04T02:44:47;100839.25;;;-0.75;100.00
60015;BME280;45867;52.480;6.056;2023-12-04T02:47:16;100854.31;;;-0.70;100.00
60015;BME280;45867;52.480;6.056;2023-12-04T02:49:42;100867.81;;;-0.53;100.00
60015;BME280;45867;52.480;6.056;2023-12-04T02:52:09;100871.59;;;-0.56;100.00
60015;BME280;45867;52.480;6.056;2023-12-04T02:54:36;100858.34;;;-0.61;100.00
60015;BME280;45867;52.480;6.056;2023-12-04T02:57:03;100883.25;;;-0.52;100.00
60015;BME280;45867;52.480;6.056;2023-12-04T02:59:38;100893.50;;;-0.43;100.00
60015;BME280;45867;52.480;6.056;2023-12-04T03:02:05;100884.66;;;-0.49;100.00
60015;BME280;45867;52.480;6.056;2023-12-04T03:04:32;100888.22;;;-0.57;100.00
60015;BME280;45867;52.480;6.056;2023-12-04T03:06:58;100893.84;;;-0.53;100.00
60015;BME280;45867;52.480;6.056;2023-12-04T03:09:27;100911.28;;;-0.47;100.00
60015;BME280;45867;52.480;6.056;2023-12-04T03:12:13;100912.69;;;-0.51;100.00
60015;BME280;45867;52.480;6.056;2023-12-04T03:14:40;100922.72;;;-0.48;100.00
60015;BME280;45867;52.480;6.056;2023-12-04T03:17:12;100933.13;;;-0.48;100.00
60015;BME280;45867;52.480;6.056;2023-12-04T03:19:39;100941.88;;;-0.56;100.00
60015;BME280;45867;52.480;6.056;2023-12-04T03:22:07;100929.25;;;-0.59;100.00
60015;BME280;45867;52.480;6.056;2023-12-04T03:24:39;100947.50;;;-0.52;100.00
60015;BME280;45867;52.480;6.056;2023-12-04T03:27:05;100945.66;;;-0.58;100.00
60015;BME280;45867;52.480;6.056;2023-12-04T03:29:32;100958.69;;;-0.58;100.00
60015;BME280;45867;52.480;6.056;2023-12-04T03:31:58;100958.13;;;-0.54;100.00
60015;BME280;45867;52.480;6.056;2023-12-04T03:34:25;100939.00;;;-0.68;100.00
60015;BME280;45867;52.480;6.056;2023-12-04T03:36:54;100987.72;;;-0.55;100.00
60015;BME280;45867;52.480;6.056;2023-12-04T03:39:21;100940.09;;;-0.77;100.00
60015;BME280;45867;52.480;6.056;2023-12-04T03:41:49;100966.69;;;-0.60;100.00
60015;BME280;45867;52.480;6.056;2023-12-04T03:44:25;100974.38;;;-0.73;100.00
60015;BME280;45867;52.480;6.056;2023-12-04T03:46:54;100983.25;;;-0.68;100.00
60015;BME280;45867;52.480;6.056;2023-12-04T03:49:21;100988.00;;;-0.71;100.00
60015;BME280;45867;52.480;6.056;2023-12-04T03:51:47;101002.88;;;-0.65;100.00
60015;BME280;45867;52.480;6.056;2023-12-04T03:54:24;101026.59;;;-0.53;100.00
60015;BME280;45867;52.480;6.056;2023-12-04T03:56:57;101019.03;;;-0.48;100.00
60015;BME280;45867;52.480;6.056;2023-12-04T03:59:25;101021.78;;;-0.56;100.00
60015;BME280;45867;52.480;6.056;2023-12-04T04:01:51;101034.56;;;-0.55;100.00
60015;BME280;45867;52.480;6.056;2023-12-04T04:04:20;101040.66;;;-0.48;100.00
60015;BME280;45867;52.480;6.056;2023-12-04T04:06:46;101057.88;;;-0.47;100.00
60015;BME280;45867;52.480;6.056;2023-12-04T04:09:13;101062.88;;;-0.52;100.00
60015;BME280;45867;52.480;6.056;2023-12-04T04:11:39;101050.31;;;-0.63;100.00
60015;BME280;45867;52.480;6.056;2023-12-04T04:14:06;101065.59;;;-0.60;100.00
60015;BME280;45867;52.480;6.056;2023-12-04T04:16:35;101066.56;;;-0.61;100.00
60015;BME280;45867;52.480;6.056;2023-12-04T04:19:01;101097.94;;;-0.48;100.00
60015;BME280;45867;52.480;6.056;2023-12-04T04:21:28;101093.84;;;-0.57;100.00
60015;BME280;45867;52.480;6.056;2023-12-04T04:23:54;101116.69;;;-0.52;100.00
60015;BME280;45867;52.480;6.056;2023-12-04T04:26:21;101124.09;;;-0.56;100.00
60015;BME280;45867;52.480;6.056;2023-12-04T04:28:47;101136.47;;;-0.58;100.00
60015;BME280;45867;52.480;6.056;2023-12-04T04:31:17;101135.41;;;-0.63;100.00
60015;BME280;45867;52.480;6.056;2023-12-04T04:33:44;101138.97;;;-0.50;100.00
60015;BME280;45867;52.480;6.056;2023-12-04T04:36:11;101142.25;;;-0.62;100.00
60015;BME280;45867;52.480;6.056;2023-12-04T04:38:43;101153.09;;;-0.59;100.00
60015;BME280;45867;52.480;6.056;2023-12-04T04:41:16;101161.97;;;-0.53;100.00
60015;BME280;45867;52.480;6.056;2023-12-04T04:43:49;101143.03;;;-0.62;100.00
60015;BME280;45867;52.480;6.056;2023-12-04T04:46:16;101141.72;;;-0.73;100.00
60015;BME280;45867;52.480;6.056;2023-12-04T04:48:43;101148.25;;;-0.62;100.00
60015;BME280;45867;52.480;6.056;2023-12-04T04:51:20;101151.78;;;-0.70;100.00
60015;BME280;45867;52.480;6.056;2023-12-04T04:53:46;101174.81;;;-0.52;100.00
60015;BME280;45867;52.480;6.056;2023-12-04T04:56:13;101153.38;;;-0.69;100.00
60015;BME280;45867;52.480;6.056;2023-12-04T04:58:42;101146.41;;;-0.68;100.00
60015;BME280;45867;52.480;6.056;2023-12-04T05:01:08;101175.50;;;-0.58;100.00
60015;BME280;45867;52.480;6.056;2023-12-04T05:03:35;101163.88;;;-0.62;100.00
60015;BME280;45867;52.480;6.056;2023-12-04T05:06:03;101178.38;;;-0.53;100.00
60015;BME280;45867;52.480;6.056;2023-12-04T05:08:29;101157.19;;;-0.86;100.00
60015;BME280;45867;52.480;6.056;2023-12-04T05:10:56;101164.72;;;-0.76;100.00
60015;BME280;45867;52.480;6.056;2023-12-04T05:13:35;101192.31;;;-0.60;100.00
60015;BME280;45867;52.480;6.056;2023-12-04T05:16:07;101191.81;;;-0.71;100.00
60015;BME280;45867;52.480;6.056;2023-12-04T05:18:36;101183.53;;;-0.74;100.00
60015;BME280;45867;52.480;6.056;2023-12-04T05:21:03;101165.53;;;-0.91;100.00
60015;BME280;45867;52.480;6.056;2023-12-04T05:23:34;101200.31;;;-0.62;100.00
60015;BME280;45867;52.480;6.056;2023-12-04T05:26:01;101198.88;;;-0.64;100.00
60015;BME280;45867;52.480;6.056;2023-12-04T05:28:27;101170.03;;;-0.84;100.00
60015;BME280;45867;52.480;6.056;2023-12-04T05:30:57;101210.47;;;-0.67;100.00
60015;BME280;45867;52.480;6.056;2023-12-04T05:33:28;101197.47;;;-0.82;100.00
60015;BME280;45867;52.480;6.056;2023-12-04T05:35:55;101180.78;;;-0.87;100.00
60015;BME280;45867;52.480;6.056;2023-12-04T05:38:24;101202.00;;;-0.69;100.00
60015;BME280;45867;52.480;6.056;2023-12-04T05:41:05;101206.84;;;-0.66;100.00
60015;BME280;45867;52.480;6.056;2023-12-04T05:43:32;101210.88;;;-0.63;100.00
60015;BME280;45867;52.480;6.056;2023-12-04T05:46:08;101217.91;;;-0.64;100.00
60015;BME280;45867;52.480;6.056;2023-12-04T05:48:35;101221.50;;;-0.65;100.00
60015;BME280;45867;52.480;6.056;2023-12-04T05:51:02;101202.22;;;-0.71;100.00
60015;BME280;45867;52.480;6.056;2023-12-04T05:53:30;101203.66;;;-0.68;100.00
60015;BME280;45867;52.480;6.056;2023-12-04T05:56:00;101214.28;;;-0.63;100.00
60015;BME280;45867;52.480;6.056;2023-12-04T05:58:29;101196.75;;;-0.76;100.00
60015;BME280;45867;52.480;6.056;2023-12-04T06:01:05;101202.13;;;-0.77;100.00
60015;BME280;45867;52.480;6.056;2023-12-04T06:03:32;101205.19;;;-0.74;100.00
60015;BME280;45867;52.480;6.056;2023-12-04T06:06:04;101224.72;;;-0.63;100.00
60015;BME280;45867;52.480;6.056;2023-12-04T06:08:33;101225.28;;;-0.68;100.00
60015;BME280;45867;52.480;6.056;2023-12-04T06:11:05;101180.88;;;-0.96;100.00
60015;BME280;45867;52.480;6.056;2023-12-04T06:13:38;101227.59;;;-0.73;100.00
60015;BME280;45867;52.480;6.056;2023-12-04T06:16:05;101234.56;;;-0.58;100.00
60015;BME280;45867;52.480;6.056;2023-12-04T06:18:32;101229.22;;;-0.72;100.00
60015;BME280;45867;52.480;6.056;2023-12-04T06:21:05;101238.19;;;-0.59;100.00
60015;BME280;45867;52.480;6.056;2023-12-04T06:23:36;101216.66;;;-0.68;100.00
60015;BME280;45867;52.480;6.056;2023-12-04T06:26:05;101230.00;;;-0.56;100.00
60015;BME280;45867;52.480;6.056;2023-12-04T06:28:45;101229.31;;;-0.65;100.00
60015;BME280;45867;52.480;6.056;2023-12-04T06:31:12;101225.53;;;-0.77;100.00
60015;BME280;45867;52.480;6.056;2023-12-04T06:33:51;101227.41;;;-0.71;100.00
60015;BME280;45867;52.480;6.056;2023-12-04T06:36:27;101231.09;;;-0.65;100.00
60015;BME280;45867;52.480;6.056;2023-12-04T06:38:55;101220.44;;;-0.71;100.00
60015;BME280;45867;52.480;6.056;2023-12-04T06:41:22;101239.81;;;-0.73;100.00
60015;BME280;45867;52.480;6.056;2023-12-04T06:43:51;101246.72;;;-0.65;100.00
60015;BME280;45867;52.480;6.056;2023-12-04T06:46:23;101256.94;;;-0.64;100.00
60015;BME280;45867;52.480;6.056;2023-12-04T06:48:52;101238.91;;;-0.65;100.00
60015;BME280;45867;52.480;6.056;2023-12-04T06:51:23;101244.66;;;-0.70;100.00
60015;BME280;45867;52.480;6.056;2023-12-04T06:53:50;101217.66;;;-0.84;100.00
60015;BME280;45867;52.480;6.056;2023-12-04T06:56:16;101265.00;;;-0.59;100.00
60015;BME280;45867;52.480;6.056;2023-12-04T06:58:49;101254.16;;;-0.62;100.00
60015;BME280;45867;52.480;6.056;2023-12-04T07:01:33;101269.84;;;-0.56;100.00
60015;BME280;45867;52.480;6.056;2023-12-04T07:04:01;101258.38;;;-0.61;100.00
60015;BME280;45867;52.480;6.056;2023-12-04T07:06:33;101267.88;;;-0.54;100.00
60015;BME280;45867;52.480;6.056;2023-12-04T07:09:00;101269.94;;;-0.49;100.00
60015;BME280;45867;52.480;6.056;2023-12-04T07:11:26;101251.63;;;-0.56;100.00
60015;BME280;45867;52.480;6.056;2023-12-04T07:13:53;101232.19;;;-0.75;100.00
60015;BME280;45867;52.480;6.056;2023-12-04T07:16:20;101276.41;;;-0.45;100.00
60015;BME280;45867;52.480;6.056;2023-12-04T07:18:49;101268.25;;;-0.57;100.00
60015;BME280;45867;52.480;6.056;2023-12-04T07:21:16;101271.81;;;-0.58;100.00
60015;BME280;45867;52.480;6.056;2023-12-04T07:23:43;101291.75;;;-0.50;100.00
60015;BME280;45867;52.480;6.056;2023-12-04T07:26:12;101288.63;;;-0.46;100.00
60015;BME280;45867;52.480;6.056;2023-12-04T07:28:39;101296.22;;;-0.44;100.00
60015;BME280;45867;52.480;6.056;2023-12-04T07:31:06;101271.13;;;-0.67;100.00
60015;BME280;45867;52.480;6.056;2023-12-04T07:33:32;101282.97;;;-0.64;100.00
60015;BME280;45867;52.480;6.056;2023-12-04T07:36:00;101275.97;;;-0.63;100.00
60015;BME280;45867;52.480;6.056;2023-12-04T07:38:27;101290.25;;;-0.59;100.00
60015;BME280;45867;52.480;6.056;2023-12-04T07:40:54;101295.88;;;-0.56;100.00
60015;BME280;45867;52.480;6.056;2023-12-04T07:43:21;101310.16;;;-0.52;100.00
60015;BME280;45867;52.480;6.056;2023-12-04T07:45:48;101308.38;;;-0.51;100.00
60015;BME280;45867;52.480;6.056;2023-12-04T07:48:17;101300.94;;;-0.54;100.00
60015;BME280;45867;52.480;6.056;2023-12-04T07:50:47;101291.84;;;-0.58;100.00
60015;BME280;45867;52.480;6.056;2023-12-04T07:53:17;101271.66;;;-0.71;100.00
60015;BME280;45867;52.480;6.056;2023-12-04T07:55:48;101294.81;;;-0.61;100.00
60015;BME280;45867;52.480;6.056;2023-12-04T07:58:15;101288.16;;;-0.64;100.00
60015;BME280;45867;52.480;6.056;2023-12-04T08:00:43;101276.84;;;-0.71;100.00
60015;BME280;45867;52.480;6.056;2023-12-04T08:03:12;101278.56;;;-0.63;100.00
60015;BME280;45867;52.480;6.056;2023-12-04T08:05:42;101303.44;;;-0.46;100.00
60015;BME280;45867;52.480;6.056;2023-12-04T08:08:11;101301.78;;;-0.47;100.00
60015;BME280;45867;52.480;6.056;2023-12-04T08:10:38;101304.13;;;-0.37;100.00
60015;BME280;45867;52.480;6.056;2023-12-04T08:13:04;101317.69;;;-0.27;100.00
60015;BME280;45867;52.480;6.056;2023-12-04T08:15:31;101324.94;;;-0.23;100.00
60015;BME280;45867;52.480;6.056;2023-12-04T08:18:03;101318.22;;;-0.32;100.00
60015;BME280;45867;52.480;6.056;2023-12-04T08:20:30;101308.34;;;-0.36;100.00
60015;BME280;45867;52.480;6.056;2023-12-04T08:23:05;101319.28;;;-0.26;100.00
60015;BME280;45867;52.480;6.056;2023-12-04T08:25:32;101313.28;;;-0.41;100.00
60015;BME280;45867;52.480;6.056;2023-12-04T08:27:59;101355.38;;;-0.08;100.00
60015;BME280;45867;52.480;6.056;2023-12-04T08:30:26;101355.28;;;-0.15;100.00
60015;BME280;45867;52.480;6.056;2023-12-04T08:32:53;101308.81;;;-0.33;100.00
60015;BME280;45867;52.480;6.056;2023-12-04T08:35:20;101368.66;;;-0.03;100.00
60015;BME280;45867;52.480;6.056;2023-12-04T08:37:46;101366.03;;;-0.03;100.00
60015;BME280;45867;52.480;6.056;2023-12-04T08:40:14;101368.47;;;-0.02;100.00
60015;BME280;45867;52.480;6.056;2023-12-04T08:42:41;101359.38;;;0.09;100.00
60015;BME280;45867;52.480;6.056;2023-12-04T08:45:09;101362.47;;;-0.02;100.00
60015;BME280;45867;52.480;6.056;2023-12-04T08:47:36;101387.94;;;0.17;100.00
60015;BME280;45867;52.480;6.056;2023-12-04T08:50:03;101383.09;;;0.14;100.00
60015;BME280;45867;52.480;6.056;2023-12-04T08:52:30;101395.81;;;0.24;100.00
60015;BME280;45867;52.480;6.056;2023-12-04T08:54:57;101405.81;;;0.20;100.00
60015;BME280;45867;52.480;6.056;2023-12-04T08:57:23;101401.59;;;0.19;100.00
60015;BME280;45867;52.480;6.056;2023-12-04T08:59:51;101422.00;;;0.16;100.00
60015;BME280;45867;52.480;6.056;2023-12-04T09:02:17;101414.81;;;0.18;100.00
60015;BME280;45867;52.480;6.056;2023-12-04T09:04:46;101425.00;;;0.34;100.00
60015;BME280;45867;52.480;6.056;2023-12-04T09:07:12;101429.78;;;0.31;100.00
60015;BME280;45867;52.480;6.056;2023-12-04T09:09:59;101429.00;;;0.30;100.00
60015;BME280;45867;52.480;6.056;2023-12-04T09:12:40;101431.41;;;0.32;100.00
60015;BME280;45867;52.480;6.056;2023-12-04T09:15:09;101423.69;;;0.24;100.00
60015;BME280;45867;52.480;6.056;2023-12-04T09:17:35;101434.63;;;0.34;100.00
60015;BME280;45867;52.480;6.056;2023-12-04T09:20:05;101447.75;;;0.40;100.00
60015;BME280;45867;52.480;6.056;2023-12-04T09:22:32;101432.56;;;0.29;100.00
60015;BME280;45867;52.480;6.056;2023-12-04T09:25:16;101452.53;;;0.37;100.00
60015;BME280;45867;52.480;6.056;2023-12-04T09:27:45;101458.63;;;0.44;100.00
60015;BME280;45867;52.480;6.056;2023-12-04T09:30:14;101451.72;;;0.36;100.00
60015;BME280;45867;52.480;6.056;2023-12-04T09:32:44;101464.09;;;0.49;100.00
60015;BME280;45867;52.480;6.056;2023-12-04T09:35:10;101466.84;;;0.62;100.00
60015;BME280;45867;52.480;6.056;2023-12-04T09:37:37;101434.97;;;0.46;100.00
60015;BME280;45867;52.480;6.056;2023-12-04T09:40:04;101443.81;;;0.66;100.00
60015;BME280;45867;52.480;6.056;2023-12-04T09:42:32;101453.25;;;0.67;100.00
60015;BME280;45867;52.480;6.056;2023-12-04T09:45:02;101464.06;;;0.64;100.00
60015;BME280;45867;52.480;6.056;2023-12-04T09:47:29;101449.03;;;0.66;100.00
60015;BME280;45867;52.480;6.056;2023-12-04T09:49:58;101464.72;;;0.87;100.00
60015;BME280;45867;52.480;6.056;2023-12-04T09:52:34;101445.06;;;0.70;100.00
60015;BME280;45867;52.480;6.056;2023-12-04T09:55:01;101469.28;;;0.85;100.00
60015;BME280;45867;52.480;6.056;2023-12-04T09:57:30;101478.88;;;1.00;100.00
60015;BME280;45867;52.480;6.056;2023-12-04T10:00:00;101480.03;;;0.97;100.00
60015;BME280;45867;52.480;6.056;2023-12-04T10:02:29;101472.59;;;0.94;100.00
60015;BME280;45867;52.480;6.056;2023-12-04T10:04:57;101479.91;;;1.05;100.00
60015;BME280;45867;52.480;6.056;2023-12-04T10:07:24;101460.97;;;0.97;100.00
60015;BME280;45867;52.480;6.056;2023-12-04T10:09:52;101478.94;;;1.06;100.00
60015;BME280;45867;52.480;6.056;2023-12-04T10:12:21;101436.81;;;0.88;100.00
60015;BME280;45867;52.480;6.056;2023-12-04T10:15:08;101450.03;;;0.86;100.00
60015;BME280;45867;52.480;6.056;2023-12-04T10:17:44;101430.16;;;0.85;100.00
60015;BME280;45867;52.480;6.056;2023-12-04T10:20:14;101442.56;;;0.83;100.00
60015;BME280;45867;52.480;6.056;2023-12-04T10:22:56;101450.38;;;0.98;100.00
60015;BME280;45867;52.480;6.056;2023-12-04T10:25:24;101461.28;;;1.08;100.00
60015;BME280;45867;52.480;6.056;2023-12-04T10:27:51;101453.78;;;0.99;100.00
60015;BME280;45867;52.480;6.056;2023-12-04T10:30:28;101442.19;;;0.86;100.00
60015;BME280;45867;52.480;6.056;2023-12-04T10:32:57;101444.81;;;0.86;100.00
60015;BME280;45867;52.480;6.056;2023-12-04T10:35:24;101417.63;;;0.74;100.00
60015;BME280;45867;52.480;6.056;2023-12-04T10:37:55;101436.00;;;0.87;100.00
60015;BME280;45867;52.480;6.056;2023-12-04T10:40:25;101426.16;;;0.89;100.00
60015;BME280;45867;52.480;6.056;2023-12-04T10:45:39;101414.69;;;0.84;100.00
60015;BME280;45867;52.480;6.056;2023-12-04T10:48:10;101415.81;;;0.96;100.00
60015;BME280;45867;52.480;6.056;2023-12-04T10:50:39;101406.94;;;0.91;100.00
60015;BME280;45867;52.480;6.056;2023-12-04T10:53:15;101387.88;;;0.90;100.00
60015;BME280;45867;52.480;6.056;2023-12-04T10:55:43;101359.84;;;0.77;100.00
60015;BME280;45867;52.480;6.056;2023-12-04T10:58:12;101351.09;;;0.85;100.00
60015;BME280;45867;52.480;6.056;2023-12-04T11:00:51;101388.19;;;1.08;100.00
60015;BME280;45867;52.480;6.056;2023-12-04T11:03:31;101379.00;;;1.13;100.00
60015;BME280;45867;52.480;6.056;2023-12-04T11:06:03;101368.97;;;1.16;100.00
60015;BME280;45867;52.480;6.056;2023-12-04T11:08:35;101362.84;;;1.30;100.00
60015;BME280;45867;52.480;6.056;2023-12-04T11:11:03;101350.97;;;1.28;100.00
60015;BME280;45867;52.480;6.056;2023-12-04T11:13:47;101346.50;;;1.15;100.00
60015;BME280;45867;52.480;6.056;2023-12-04T11:16:41;101325.75;;;1.07;100.00
60015;BME280;45867;52.480;6.056;2023-12-04T11:19:29;101312.78;;;0.92;100.00
60015;BME280;45867;52.480;6.056;2023-12-04T11:21:59;101340.50;;;1.21;100.00
60015;BME280;45867;52.480;6.056;2023-12-04T11:24:25;101334.09;;;1.24;100.00
60015;BME280;45867;52.480;6.056;2023-12-04T11:26:52;101331.72;;;1.29;100.00
60015;BME280;45867;52.480;6.056;2023-12-04T11:29:23;101311.16;;;1.19;100.00
60015;BME280;45867;52.480;6.056;2023-12-04T11:31:50;101336.69;;;1.24;100.00
60015;BME280;45867;52.480;6.056;2023-12-04T11:34:21;101337.41;;;1.39;100.00
60015;BME280;45867;52.480;6.056;2023-12-04T11:36:51;101301.09;;;1.16;100.00
60015;BME280;45867;52.480;6.056;2023-12-04T11:39:21;101328.16;;;1.43;100.00
60015;BME280;45867;52.480;6.056;2023-12-04T11:41:51;101330.63;;;1.51;100.00
60015;BME280;45867;52.480;6.056;2023-12-04T11:44:18;101348.19;;;1.64;100.00
60015;BME280;45867;52.480;6.056;2023-12-04T11:47:05;101323.97;;;1.49;100.00
60015;BME280;45867;52.480;6.056;2023-12-04T11:49:32;101318.59;;;1.57;100.00
60015;BME280;45867;52.480;6.056;2023-12-04T11:52:00;101329.59;;;1.46;100.00
60015;BME280;45867;52.480;6.056;2023-12-04T11:54:28;101342.25;;;1.49;100.00
60015;BME280;45867;52.480;6.056;2023-12-04T11:57:23;101329.41;;;1.47;100.00
60015;BME280;45867;52.480;6.056;2023-12-04T11:59:49;101338.44;;;1.45;100.00
60015;BME280;45867;52.480;6.056;2023-12-04T12:02:16;101330.97;;;1.42;100.00
60015;BME280;45867;52.480;6.056;2023-12-04T12:04:53;101326.19;;;1.45;100.00
60015;BME280;45867;52.480;6.056;2023-12-04T12:07:20;101280.22;;;1.16;100.00
60015;BME280;45867;52.480;6.056;2023-12-04T12:09:47;101310.66;;;1.37;100.00
60015;BME280;45867;52.480;6.056;2023-12-04T12:12:20;101262.97;;;1.15;100.00
60015;BME280;45867;52.480;6.056;2023-12-04T12:14:46;101297.84;;;1.42;100.00
60015;BME280;45867;52.480;6.056;2023-12-04T12:17:17;101257.75;;;1.22;100.00
60015;BME280;45867;52.480;6.056;2023-12-04T12:19:46;101281.31;;;1.28;100.00
60015;BME280;45867;52.480;6.056;2023-12-04T12:25:04;101279.72;;;1.34;100.00
60015;BME280;45867;52.480;6.056;2023-12-04T12:27:31;101262.19;;;1.28;100.00
60015;BME280;45867;52.480;6.056;2023-12-04T12:30:16;101240.22;;;1.09;100.00
60015;BME280;45867;52.480;6.056;2023-12-04T12:32:47;101225.97;;;1.05;100.00
60015;BME280;45867;52.480;6.056;2023-12-04T12:35:24;101211.66;;;1.01;100.00
60015;BME280;45867;52.480;6.056;2023-12-04T12:37:51;101228.41;;;1.13;100.00
60015;BME280;45867;52.480;6.056;2023-12-04T12:40:20;101234.03;;;1.17;100.00
60015;BME280;45867;52.480;6.056;2023-12-04T12:42:50;101236.91;;;1.28;100.00
60015;BME280;45867;52.480;6.056;2023-12-04T12:45:25;101234.25;;;1.22;100.00
60015;BME280;45867;52.480;6.056;2023-12-04T12:47:52;101226.03;;;1.25;100.00
60015;BME280;45867;52.480;6.056;2023-12-04T12:50:21;101204.34;;;1.18;100.00
60015;BME280;45867;52.480;6.056;2023-12-04T12:52:51;101182.63;;;1.10;100.00
60015;BME280;45867;52.480;6.056;2023-12-04T12:55:24;101203.34;;;1.19;100.00
60015;BME280;45867;52.480;6.056;2023-12-04T12:57:56;101223.66;;;1.30;100.00
60015;BME280;45867;52.480;6.056;2023-12-04T13:00:24;101221.25;;;1.28;100.00
60015;BME280;45867;52.480;6.056;2023-12-04T13:02:54;101214.78;;;1.24;100.00